Time;durP1;ratioP1;P1;durP2;ratioP2;P2;SDS_P1;SDS_P2;PMS_P1;PMS_P2;Temp;Humidity;BMP_temperature;BMP_pressure;BME280_temperature;BME280_humidity;BME280_pressure;Samples;Min_cycle;Max_cycle;Signal;HPM_P1;HPM_P2
2022/04/04 05:02:10;;;;;;;1999.90;999.90;;;;;;;;;;5415489;22;20451;-69
2022/04/04 05:04:55;;;;;;;1999.90;999.90;;;;;;;;;;5033994;28;20302;-68
2022/04/04 05:07:40;;;;;;;1999.90;999.90;;;;;;;;;;5033057;28;20894;-64
2022/04/04 05:10:26;;;;;;;1999.90;999.90;;;;;;;;;;5032736;28;20202;-67
2022/04/04 05:13:12;;;;;;;1999.90;999.90;;;;;;;;;;5012799;28;20712;-69
2022/04/04 05:15:56;;;;;;;1999.90;999.90;;;;;;;;;;5004019;28;20208;-68
2022/04/04 05:18:44;;;;;;;1999.90;999.90;;;;;;;;;;5012775;28;20265;-69
2022/04/04 05:21:30;;;;;;;1999.90;999.90;;;;;;;;;;5013752;28;20297;-68
2022/04/04 05:24:15;;;;;;;1999.90;999.90;;;;;;;;;;5013563;28;20218;-69
2022/04/04 05:27:00;;;;;;;1999.90;999.90;;;;;;;;;;5011017;28;20211;-69
2022/04/04 05:29:45;;;;;;;1999.90;999.90;;;;;;;;;;5009966;28;20400;-69
2022/04/04 05:32:30;;;;;;;1999.90;999.90;;;;;;;;;;5012299;28;20238;-69
2022/04/04 05:35:19;;;;;;;1999.90;999.90;;;;;;;;;;5012297;28;20214;-69
2022/04/04 05:38:06;;;;;;;1999.90;999.90;;;;;;;;;;5011689;28;20230;-67
2022/04/04 05:40:52;;;;;;;1999.90;999.90;;;;;;;;;;5012651;28;20261;-64
2022/04/04 05:43:37;;;;;;;1999.90;999.90;;;;;;;;;;5012493;28;20204;-68
2022/04/04 05:46:22;;;;;;;1999.90;999.90;;;;;;;;;;5012848;28;20575;-68
2022/04/04 05:49:07;;;;;;;1999.90;999.90;;;;;;;;;;5011279;28;20571;-70
2022/04/04 05:51:54;;;;;;;1999.90;999.90;;;;;;;;;;5012987;28;20238;-71
2022/04/04 05:54:53;;;;;;;1999.90;999.90;;;;;;;;;;5013383;28;20566;-70
2022/04/04 05:57:39;;;;;;;1999.90;999.90;;;;;;;;;;5012347;28;20699;-70
2022/04/04 06:00:25;;;;;;;1999.90;999.90;;;;;;;;;;5012923;28;20222;-70
2022/04/04 06:03:10;;;;;;;1999.90;999.90;;;;;;;;;;5013135;28;20206;-71
2022/04/04 06:05:55;;;;;;;1999.90;999.90;;;;;;;;;;5013175;28;20210;-71
2022/04/04 06:08:41;;;;;;;1999.90;999.90;;;;;;;;;;5012367;28;20257;-70
2022/04/04 06:11:27;;;;;;;1999.90;999.90;;;;;;;;;;5011965;28;20222;-70
2022/04/04 06:14:12;;;;;;;1999.90;999.90;;;;;;;;;;5013029;28;20226;-71
2022/04/04 06:16:56;;;;;;;1999.90;999.90;;;;;;;;;;5013132;28;20246;-70
2022/04/04 06:19:43;;;;;;;1999.90;999.90;;;;;;;;;;5012034;28;20211;-70
2022/04/04 06:22:33;;;;;;;1999.90;999.90;;;;;;;;;;5012777;28;20326;-70
2022/04/04 06:25:21;;;;;;;1999.90;999.90;;;;;;;;;;5012993;28;20577;-70
2022/04/04 06:28:06;;;;;;;1999.90;999.90;;;;;;;;;;5011979;28;20322;-71
2022/04/04 06:30:52;;;;;;;1999.90;999.90;;;;;;;;;;5011750;28;20227;-69
2022/04/04 06:33:37;;;;;;;1999.90;999.90;;;;;;;;;;5010419;28;20427;-69
2022/04/04 06:36:23;;;;;;;1999.90;999.90;;;;;;;;;;5011405;28;20686;-69
2022/04/04 06:39:08;;;;;;;1999.90;999.90;;;;;;;;;;5008763;28;20735;-69
2022/04/04 06:41:55;;;;;;;1999.90;999.90;;;;;;;;;;5011440;28;20235;-68
2022/04/04 06:44:42;;;;;;;1999.90;999.90;;;;;;;;;;5011871;28;20210;-69
2022/04/04 06:47:28;;;;;;;1999.90;999.90;;;;;;;;;;5006133;28;20210;-69
2022/04/04 06:50:13;;;;;;;1999.90;999.90;;;;;;;;;;5011108;28;20212;-68
2022/04/04 06:52:58;;;;;;;1999.90;999.90;;;;;;;;;;5011048;28;20215;-69
2022/04/04 06:55:44;;;;;;;1999.90;999.90;;;;;;;;;;5010887;28;20202;-72
2022/04/04 06:58:30;;;;;;;1999.90;999.90;;;;;;;;;;5010176;28;20216;-71
2022/04/04 07:01:16;;;;;;;1999.90;999.90;;;;;;;;;;5008774;28;20346;-67
2022/04/04 07:04:02;;;;;;;1999.90;999.90;;;;;;;;;;5010052;28;20420;-69
2022/04/04 07:06:48;;;;;;;1999.90;999.90;;;;;;;;;;5011501;28;20709;-70
2022/04/04 07:09:33;;;;;;;1999.90;999.90;;;;;;;;;;5011521;28;20275;-69
2022/04/04 07:12:17;;;;;;;1999.90;999.90;;;;;;;;;;5012259;28;20721;-71
2022/04/04 07:15:04;;;;;;;1999.90;999.90;;;;;;;;;;5012140;28;20274;-70
2022/04/04 07:17:51;;;;;;;1999.90;999.90;;;;;;;;;;5006819;28;20217;-72
2022/04/04 07:20:38;;;;;;;1999.90;999.90;;;;;;;;;;5006979;28;20313;-71
2022/04/04 07:23:24;;;;;;;1999.90;999.90;;;;;;;;;;5009718;28;20601;-71
2022/04/04 07:26:08;;;;;;;1999.90;999.90;;;;;;;;;;5010773;28;20209;-71
2022/04/04 07:28:54;;;;;;;1999.90;999.90;;;;;;;;;;5011843;28;20200;-69
2022/04/04 07:31:40;;;;;;;1999.90;999.90;;;;;;;;;;5011304;28;20715;-71
2022/04/04 07:34:25;;;;;;;1999.90;999.90;;;;;;;;;;5013325;28;20327;-71
2022/04/04 07:37:10;;;;;;;1999.90;999.90;;;;;;;;;;5013877;28;20214;-71
2022/04/04 07:39:54;;;;;;;1999.90;999.90;;;;;;;;;;5010178;28;20208;-71
2022/04/04 07:42:40;;;;;;;1999.90;999.90;;;;;;;;;;5013012;28;20282;-69
2022/04/04 07:45:27;;;;;;;1999.90;999.90;;;;;;;;;;5014319;28;20684;-69
2022/04/04 07:48:14;;;;;;;1999.90;999.90;;;;;;;;;;5015045;28;20208;-70
2022/04/04 07:50:59;;;;;;;1999.90;999.90;;;;;;;;;;5014330;28;20229;-70
2022/04/04 07:53:44;;;;;;;1999.90;999.90;;;;;;;;;;4996059;28;20209;-70
2022/04/04 07:56:29;;;;;;;1999.90;999.90;;;;;;;;;;4994573;28;20412;-69
2022/04/04 07:59:14;;;;;;;1999.90;999.90;;;;;;;;;;4994870;28;20225;-69
2022/04/04 08:01:59;;;;;;;1999.90;999.90;;;;;;;;;;5007417;28;20302;-69
2022/04/04 08:04:45;;;;;;;1999.90;999.90;;;;;;;;;;5015111;28;20325;-70
2022/04/04 08:07:30;;;;;;;1999.90;999.90;;;;;;;;;;5015097;28;20312;-70
2022/04/04 08:10:15;;;;;;;1999.90;999.90;;;;;;;;;;5014446;28;20209;-70
2022/04/04 08:13:00;;;;;;;1999.90;999.90;;;;;;;;;;5014594;28;20212;-70
2022/04/04 08:15:45;;;;;;;1999.90;999.90;;;;;;;;;;5013937;28;20208;-70
2022/04/04 08:18:30;;;;;;;1999.90;999.90;;;;;;;;;;4999493;28;20375;-69
2022/04/04 08:21:17;;;;;;;1999.90;999.90;;;;;;;;;;5012304;28;20715;-69
2022/04/04 08:24:02;;;;;;;1999.90;999.90;;;;;;;;;;5012542;28;20206;-69
2022/04/04 08:26:47;;;;;;;1999.90;999.90;;;;;;;;;;5012842;28;20416;-68
2022/04/04 08:29:32;;;;;;;1999.90;999.90;;;;;;;;;;4994389;28;20211;-69
2022/04/04 08:32:17;;;;;;;1999.90;999.90;;;;;;;;;;5005899;28;20735;-70
2022/04/04 08:35:02;;;;;;;1999.90;999.90;;;;;;;;;;5012471;28;20206;-69
2022/04/04 08:37:49;;;;;;;1999.90;999.90;;;;;;;;;;5013181;28;20715;-68
2022/04/04 08:40:34;;;;;;;1999.90;999.90;;;;;;;;;;5005998;28;20214;-68
2022/04/04 08:43:19;;;;;;;1999.90;999.90;;;;;;;;;;4994846;28;20338;-70
2022/04/04 08:46:06;;;;;;;1999.90;999.90;;;;;;;;;;5006767;28;20221;-70
2022/04/04 08:48:54;;;;;;;1999.90;999.90;;;;;;;;;;5012685;28;20215;-69
2022/04/04 08:51:39;;;;;;;1999.90;999.90;;;;;;;;;;5013673;28;20589;-69
2022/04/04 08:54:25;;;;;;;1999.90;999.90;;;;;;;;;;5013198;28;20212;-70
2022/04/04 08:57:10;;;;;;;1999.90;999.90;;;;;;;;;;5014230;28;20581;-70
2022/04/04 08:59:55;;;;;;;1999.90;999.90;;;;;;;;;;5012508;28;20232;-69
2022/04/04 09:02:40;;;;;;;1999.90;999.90;;;;;;;;;;5008634;28;20241;-69
2022/04/04 09:05:25;;;;;;;1999.90;999.90;;;;;;;;;;5014075;28;20577;-71
2022/04/04 09:08:12;;;;;;;1999.90;999.90;;;;;;;;;;5013077;28;20206;-70
2022/04/04 09:11:00;;;;;;;1999.90;999.90;;;;;;;;;;5013774;28;20236;-68
2022/04/04 09:13:45;;;;;;;1999.90;999.90;;;;;;;;;;5013984;28;20207;-68
2022/04/04 09:16:30;;;;;;;1999.90;999.90;;;;;;;;;;5013372;28;20203;-68
2022/04/04 09:19:27;;;;;;;1999.90;999.90;;;;;;;;;;5012731;28;20310;-69
2022/04/04 09:22:13;;;;;;;1999.90;999.90;;;;;;;;;;5012832;28;20362;-70
2022/04/04 09:24:58;;;;;;;1999.90;999.90;;;;;;;;;;5008914;28;20344;-68
2022/04/04 09:27:44;;;;;;;1999.90;999.90;;;;;;;;;;5009636;28;20432;-70
2022/04/04 09:30:29;;;;;;;1999.90;999.90;;;;;;;;;;5012487;28;20685;-70
2022/04/04 09:33:15;;;;;;;1999.90;999.90;;;;;;;;;;5012717;28;20213;-70
2022/04/04 09:36:00;;;;;;;1999.90;999.90;;;;;;;;;;5012888;28;20282;-70
2022/04/04 09:38:53;;;;;;;1999.90;999.90;;;;;;;;;;5010114;28;20316;-69
2022/04/04 09:41:39;;;;;;;1999.90;999.90;;;;;;;;;;5012082;28;20839;-68
2022/04/04 09:44:26;;;;;;;1999.90;999.90;;;;;;;;;;4992524;28;20209;-70
2022/04/04 09:47:11;;;;;;;1999.90;999.90;;;;;;;;;;5008241;28;20455;-69
2022/04/04 09:49:56;;;;;;;1999.90;999.90;;;;;;;;;;5010791;28;20283;-69
2022/04/04 09:52:50;;;;;;;1999.90;999.90;;;;;;;;;;5008035;28;20231;-68
2022/04/04 09:55:36;;;;;;;1999.90;999.90;;;;;;;;;;5011911;28;20260;-69
2022/04/04 09:58:22;;;;;;;1999.90;999.90;;;;;;;;;;5012031;28;20707;-69
2022/04/04 10:01:09;;;;;;;1999.90;999.90;;;;;;;;;;5011884;28;20606;-69
2022/04/04 10:03:56;;;;;;;1999.90;999.90;;;;;;;;;;5012248;28;20204;-69
2022/04/04 10:06:42;;;;;;;1999.90;999.90;;;;;;;;;;5011866;28;20205;-69
2022/04/04 10:09:27;;;;;;;1999.90;999.90;;;;;;;;;;5011506;28;20279;-69
2022/04/04 10:12:13;;;;;;;1999.90;999.90;;;;;;;;;;5012562;28;20296;-69
2022/04/04 10:15:00;;;;;;;1999.90;999.90;;;;;;;;;;5011447;28;20324;-70
2022/04/04 10:17:46;;;;;;;1999.90;999.90;;;;;;;;;;5000065;28;20263;-70
2022/04/04 10:20:31;;;;;;;1999.90;999.90;;;;;;;;;;5008730;28;20275;-69
2022/04/04 10:23:16;;;;;;;1999.90;999.90;;;;;;;;;;5009969;28;20213;-71
2022/04/04 10:26:01;;;;;;;1999.90;999.90;;;;;;;;;;5009908;28;20271;-70
2022/04/04 10:28:47;;;;;;;1999.90;999.90;;;;;;;;;;5002260;28;20206;-69
2022/04/04 10:31:41;;;;;;;1999.90;999.90;;;;;;;;;;4992830;28;20230;-71
2022/04/04 10:34:28;;;;;;;1999.90;999.90;;;;;;;;;;4992915;28;20234;-71
2022/04/04 10:37:14;;;;;;;1999.90;999.90;;;;;;;;;;5007549;28;20703;-69
2022/04/04 10:39:59;;;;;;;1999.90;999.90;;;;;;;;;;5011162;28;20224;-70
2022/04/04 10:42:46;;;;;;;1999.90;999.90;;;;;;;;;;5011916;28;20579;-71
2022/04/04 10:45:31;;;;;;;1999.90;999.90;;;;;;;;;;5011904;28;20205;-70
2022/04/04 10:48:18;;;;;;;1999.90;999.90;;;;;;;;;;5011469;28;20772;-71
2022/04/04 10:51:10;;;;;;;1999.90;999.90;;;;;;;;;;5012247;28;20245;-70
2022/04/04 10:53:57;;;;;;;1999.90;999.90;;;;;;;;;;5010154;28;20470;-70
2022/04/04 10:56:42;;;;;;;1999.90;999.90;;;;;;;;;;5009376;28;20198;-70
2022/04/04 10:59:28;;;;;;;1999.90;999.90;;;;;;;;;;4999527;28;20259;-70
2022/04/04 11:02:14;;;;;;;1999.90;999.90;;;;;;;;;;4997277;28;20237;-70
2022/04/04 11:08:02;;;;;;;1999.90;999.90;;;;;;;;;;4985240;28;20256;-71
2022/04/04 11:10:53;;;;;;;1999.90;999.90;;;;;;;;;;5011413;28;20276;-71
2022/04/04 11:13:38;;;;;;;1999.90;999.90;;;;;;;;;;5011825;28;20209;-72
2022/04/04 11:16:43;;;;;;;1999.90;999.90;;;;;;;;;;5005968;28;20320;-67
2022/04/04 11:19:28;;;;;;;1999.90;999.90;;;;;;;;;;5008077;28;20220;-68
2022/04/04 11:22:15;;;;;;;1999.90;999.90;;;;;;;;;;5011668;28;20292;-69
2022/04/04 11:25:04;;;;;;;1999.90;999.90;;;;;;;;;;5008706;28;20285;-67
2022/04/04 11:27:49;;;;;;;1999.90;999.90;;;;;;;;;;5010271;28;20213;-67
2022/04/04 11:30:35;;;;;;;1999.90;999.90;;;;;;;;;;5011181;28;20269;-67
2022/04/04 11:33:22;;;;;;;1999.90;999.90;;;;;;;;;;5011025;28;20716;-67
2022/04/04 11:36:09;;;;;;;1999.90;999.90;;;;;;;;;;5011018;28;20687;-67
2022/04/04 11:38:57;;;;;;;1999.90;999.90;;;;;;;;;;4990416;28;20217;-67
2022/04/04 11:41:51;;;;;;;1999.90;999.90;;;;;;;;;;5009941;28;20240;-67
2022/04/04 11:44:44;;;;;;;1999.90;999.90;;;;;;;;;;5011080;28;20233;-69
2022/04/04 11:47:29;;;;;;;1999.90;999.90;;;;;;;;;;5011183;28;20582;-68
2022/04/04 11:50:14;;;;;;;1999.90;999.90;;;;;;;;;;5011579;28;20950;-68
2022/04/04 11:53:02;;;;;;;1999.90;999.90;;;;;;;;;;5010208;28;20296;-68
2022/04/04 11:55:47;;;;;;;1999.90;999.90;;;;;;;;;;5009292;28;20213;-69
2022/04/04 11:58:37;;;;;;;1999.90;999.90;;;;;;;;;;5010524;28;20206;-68
2022/04/04 12:01:27;;;;;;;1999.90;999.90;;;;;;;;;;5010546;28;20312;-69
2022/04/04 12:04:14;;;;;;;1999.90;999.90;;;;;;;;;;5010955;28;20206;-69
2022/04/04 12:07:00;;;;;;;1999.90;999.90;;;;;;;;;;4999026;28;20593;-67
2022/04/04 12:09:51;;;;;;;1999.90;999.90;;;;;;;;;;5010744;28;20423;-69
2022/04/04 12:12:36;;;;;;;1999.90;999.90;;;;;;;;;;5013643;28;20238;-69
2022/04/04 12:15:27;;;;;;;1999.90;999.90;;;;;;;;;;5009219;28;20214;-69
2022/04/04 12:18:19;;;;;;;1999.90;999.90;;;;;;;;;;5013701;28;20573;-67
2022/04/04 12:21:04;;;;;;;1999.90;999.90;;;;;;;;;;5014243;28;20296;-68
2022/04/04 12:27:07;;;;;;;1999.90;999.90;;;;;;;;;;5013866;28;20205;-67
2022/04/04 12:29:58;;;;;;;1999.90;999.90;;;;;;;;;;5013937;28;20195;-67
2022/04/04 12:32:45;;;;;;;1999.90;999.90;;;;;;;;;;4994257;28;20232;-67
2022/04/04 12:35:31;;;;;;;1999.90;999.90;;;;;;;;;;5012853;28;20214;-67
2022/04/04 12:38:24;;;;;;;1999.90;999.90;;;;;;;;;;5012217;28;20214;-69
2022/04/04 12:41:10;;;;;;;1999.90;999.90;;;;;;;;;;5012132;28;20379;-67
2022/04/04 12:44:00;;;;;;;1999.90;999.90;;;;;;;;;;5013660;28;20229;-67
2022/04/04 12:46:45;;;;;;;1999.90;999.90;;;;;;;;;;5013068;28;20310;-68
2022/04/04 12:49:31;;;;;;;1999.90;999.90;;;;;;;;;;5012394;28;20209;-68
2022/04/04 12:52:16;;;;;;;1999.90;999.90;;;;;;;;;;5012134;28;20491;-70
2022/04/04 12:55:10;;;;;;;1999.90;999.90;;;;;;;;;;5012098;28;20210;-69
2022/04/04 12:57:55;;;;;;;1999.90;999.90;;;;;;;;;;5006424;28;20296;-69
2022/04/04 13:00:40;;;;;;;1999.90;999.90;;;;;;;;;;5005543;28;20744;-69
2022/04/04 13:03:26;;;;;;;1999.90;999.90;;;;;;;;;;4997658;28;20206;-69
2022/04/04 13:06:12;;;;;;;1999.90;999.90;;;;;;;;;;5013133;28;20305;-70
2022/04/04 13:08:58;;;;;;;1999.90;999.90;;;;;;;;;;4998825;28;20218;-69
2022/04/04 13:11:48;;;;;;;1999.90;999.90;;;;;;;;;;5007357;28;20234;-68
2022/04/04 13:14:46;;;;;;;1999.90;999.90;;;;;;;;;;5013059;28;20252;-68
2022/04/04 13:17:35;;;;;;;1999.90;999.90;;;;;;;;;;5012668;28;20234;-69
2022/04/04 13:20:21;;;;;;;1999.90;999.90;;;;;;;;;;5012900;28;20245;-69
2022/04/04 13:23:08;;;;;;;1999.90;999.90;;;;;;;;;;5013302;28;20218;-70
2022/04/04 13:25:53;;;;;;;1999.90;999.90;;;;;;;;;;5013014;28;20276;-68
2022/04/04 13:28:38;;;;;;;1999.90;999.90;;;;;;;;;;5012265;28;20241;-67
2022/04/04 13:31:23;;;;;;;1999.90;999.90;;;;;;;;;;5012549;28;20871;-67
2022/04/04 13:34:08;;;;;;;1999.90;999.90;;;;;;;;;;5013395;28;20202;-67
2022/04/04 13:36:53;;;;;;;1999.90;999.90;;;;;;;;;;5012689;28;20217;-69
2022/04/04 13:39:40;;;;;;;1999.90;999.90;;;;;;;;;;5012093;28;20436;-68
2022/04/04 13:42:25;;;;;;;1999.90;999.90;;;;;;;;;;5010123;28;20612;-66
2022/04/04 13:45:10;;;;;;;1999.90;999.90;;;;;;;;;;5012968;28;20203;-67
2022/04/04 13:47:55;;;;;;;1999.90;999.90;;;;;;;;;;5011688;28;20225;-68
2022/04/04 13:50:40;;;;;;;1999.90;999.90;;;;;;;;;;5012833;28;21567;-68
2022/04/04 13:53:25;;;;;;;1999.90;999.90;;;;;;;;;;5011689;28;20697;-68
2022/04/04 13:56:11;;;;;;;1999.90;999.90;;;;;;;;;;4991990;28;20408;-67
2022/04/04 13:58:56;;;;;;;1999.90;999.90;;;;;;;;;;5005667;28;20227;-67
2022/04/04 14:01:41;;;;;;;1999.90;999.90;;;;;;;;;;5012029;28;20234;-68
2022/04/04 14:04:26;;;;;;;1999.90;999.90;;;;;;;;;;5012690;28;20225;-68
2022/04/04 14:07:11;;;;;;;1999.90;999.90;;;;;;;;;;5012775;28;20253;-67
2022/04/04 14:09:58;;;;;;;1999.90;999.90;;;;;;;;;;5002525;28;20278;-68
2022/04/04 14:12:45;;;;;;;1999.90;999.90;;;;;;;;;;5012331;28;20234;-68
2022/04/04 14:15:29;;;;;;;1999.90;999.90;;;;;;;;;;5011518;28;20217;-66
2022/04/04 14:18:14;;;;;;;1999.90;999.90;;;;;;;;;;5009507;28;20213;-67
2022/04/04 14:20:59;;;;;;;1999.90;999.90;;;;;;;;;;5010262;28;20349;-67
2022/04/04 14:23:45;;;;;;;1999.90;999.90;;;;;;;;;;5002334;28;20210;-67
2022/04/04 14:26:30;;;;;;;1999.90;999.90;;;;;;;;;;5004720;28;20518;-68
2022/04/04 14:29:16;;;;;;;1999.90;999.90;;;;;;;;;;5002379;28;20573;-67
2022/04/04 14:32:01;;;;;;;1999.90;999.90;;;;;;;;;;5010637;28;20586;-66
2022/04/04 14:34:46;;;;;;;1999.90;999.90;;;;;;;;;;5012034;28;20210;-65
2022/04/04 14:37:31;;;;;;;1999.90;999.90;;;;;;;;;;5011068;28;20746;-66
2022/04/04 14:40:16;;;;;;;1999.90;999.90;;;;;;;;;;5011790;28;20313;-66
2022/04/04 14:43:01;;;;;;;1999.90;999.90;;;;;;;;;;5011867;28;20214;-68
2022/04/04 14:45:47;;;;;;;1999.90;999.90;;;;;;;;;;5011618;28;20206;-66
2022/04/04 14:48:32;;;;;;;1999.90;999.90;;;;;;;;;;5007931;28;20253;-69
2022/04/04 14:51:17;;;;;;;1999.90;999.90;;;;;;;;;;5009439;28;20222;-68
2022/04/04 14:54:02;;;;;;;1999.90;999.90;;;;;;;;;;4991922;28;20210;-66
2022/04/04 14:56:48;;;;;;;1999.90;999.90;;;;;;;;;;4992373;28;20218;-67
2022/04/04 14:59:33;;;;;;;1999.90;999.90;;;;;;;;;;4990686;28;20215;-67
2022/04/04 15:02:20;;;;;;;1999.90;999.90;;;;;;;;;;5005309;28;20761;-69
2022/04/04 15:05:06;;;;;;;1999.90;999.90;;;;;;;;;;5007951;28;20286;-67
2022/04/04 15:07:51;;;;;;;1999.90;999.90;;;;;;;;;;5009194;28;20221;-68
2022/04/04 15:10:36;;;;;;;1999.90;999.90;;;;;;;;;;5012165;28;20194;-65
2022/04/04 15:13:21;;;;;;;1999.90;999.90;;;;;;;;;;5012150;28;20206;-66
2022/04/04 15:16:06;;;;;;;1999.90;999.90;;;;;;;;;;5012245;28;20641;-67
2022/04/04 15:18:52;;;;;;;1999.90;999.90;;;;;;;;;;4996174;28;20693;-68
2022/04/04 15:21:38;;;;;;;1999.90;999.90;;;;;;;;;;4991926;28;20237;-65
2022/04/04 15:24:22;;;;;;;1999.90;999.90;;;;;;;;;;4992337;28;20211;-68
2022/04/04 15:27:07;;;;;;;1999.90;999.90;;;;;;;;;;5006005;28;20264;-66
2022/04/04 15:29:53;;;;;;;1999.90;999.90;;;;;;;;;;5010005;28;20210;-66
2022/04/04 15:32:38;;;;;;;1999.90;999.90;;;;;;;;;;4992149;28;20329;-67
2022/04/04 15:35:24;;;;;;;1999.90;999.90;;;;;;;;;;5002141;28;20214;-68
2022/04/04 15:38:09;;;;;;;1999.90;999.90;;;;;;;;;;5011002;28;20310;-68
2022/04/04 15:40:54;;;;;;;1999.90;999.90;;;;;;;;;;5011657;28;20242;-68
2022/04/04 15:43:39;;;;;;;1999.90;999.90;;;;;;;;;;5013278;28;20701;-67
2022/04/04 15:46:26;;;;;;;1999.90;999.90;;;;;;;;;;5015511;28;20292;-68
2022/04/04 15:49:12;;;;;;;1999.90;999.90;;;;;;;;;;5014675;28;20422;-66
2022/04/04 15:51:58;;;;;;;1999.90;999.90;;;;;;;;;;5015561;28;20221;-68
2022/04/04 15:54:45;;;;;;;1999.90;999.90;;;;;;;;;;5015472;28;20229;-67
2022/04/04 15:57:30;;;;;;;1999.90;999.90;;;;;;;;;;5015273;28;20209;-67
2022/04/04 16:00:15;;;;;;;1999.90;999.90;;;;;;;;;;5015322;28;20716;-67
2022/04/04 16:03:00;;;;;;;1999.90;999.90;;;;;;;;;;5015108;28;20412;-67
2022/04/04 16:05:45;;;;;;;1999.90;999.90;;;;;;;;;;5015652;28;20213;-67
2022/04/04 16:08:31;;;;;;;1999.90;999.90;;;;;;;;;;5014555;28;20207;-68
2022/04/04 16:11:17;;;;;;;1999.90;999.90;;;;;;;;;;5015258;28;20245;-68
2022/04/04 16:14:02;;;;;;;1999.90;999.90;;;;;;;;;;5016414;28;20202;-66
2022/04/04 16:16:47;;;;;;;1999.90;999.90;;;;;;;;;;5016022;28;20210;-67
2022/04/04 16:19:32;;;;;;;1999.90;999.90;;;;;;;;;;5015416;28;20223;-65
2022/04/04 16:22:17;;;;;;;1999.90;999.90;;;;;;;;;;5015450;28;20706;-65
2022/04/04 16:25:03;;;;;;;1999.90;999.90;;;;;;;;;;4995162;28;20692;-65
2022/04/04 16:27:48;;;;;;;1999.90;999.90;;;;;;;;;;4994597;28;20286;-66
2022/04/04 16:30:33;;;;;;;1999.90;999.90;;;;;;;;;;4995221;28;20206;-66
2022/04/04 16:33:18;;;;;;;1999.90;999.90;;;;;;;;;;4994851;28;20204;-66
2022/04/04 16:36:03;;;;;;;1999.90;999.90;;;;;;;;;;4995218;28;20219;-66
2022/04/04 16:38:48;;;;;;;1999.90;999.90;;;;;;;;;;4994402;28;20744;-66
2022/04/04 16:41:34;;;;;;;1999.90;999.90;;;;;;;;;;4994763;28;20249;-65
2022/04/04 16:44:21;;;;;;;1999.90;999.90;;;;;;;;;;5001879;28;20200;-68
2022/04/04 16:47:06;;;;;;;1999.90;999.90;;;;;;;;;;5014594;28;20265;-66
2022/04/04 16:49:51;;;;;;;1999.90;999.90;;;;;;;;;;5013669;28;20234;-68
2022/04/04 16:52:37;;;;;;;1999.90;999.90;;;;;;;;;;5014396;28;20321;-65
2022/04/04 16:55:21;;;;;;;1999.90;999.90;;;;;;;;;;5013250;28;20290;-66
2022/04/04 16:58:08;;;;;;;1999.90;999.90;;;;;;;;;;5013560;28;20334;-68
2022/04/04 17:00:53;;;;;;;1999.90;999.90;;;;;;;;;;5014053;28;20775;-66
2022/04/04 17:03:38;;;;;;;1999.90;999.90;;;;;;;;;;5013643;28;20283;-67
2022/04/04 17:06:23;;;;;;;1999.90;999.90;;;;;;;;;;5014110;28;20210;-68
2022/04/04 17:09:08;;;;;;;1999.90;999.90;;;;;;;;;;5013066;28;20210;-67
2022/04/04 17:11:53;;;;;;;1999.90;999.90;;;;;;;;;;5013895;28;20786;-67
2022/04/04 17:14:40;;;;;;;1999.90;999.90;;;;;;;;;;5014111;28;20571;-67
2022/04/04 17:17:25;;;;;;;1999.90;999.90;;;;;;;;;;5013537;28;20226;-68
2022/04/04 17:20:13;;;;;;;1999.90;999.90;;;;;;;;;;5013488;28;20824;-68
2022/04/04 17:22:58;;;;;;;1999.90;999.90;;;;;;;;;;5013848;28;20215;-67
2022/04/04 17:25:44;;;;;;;1999.90;999.90;;;;;;;;;;5013303;28;20205;-67
2022/04/04 17:28:30;;;;;;;1999.90;999.90;;;;;;;;;;5012239;28;20285;-67
2022/04/04 17:31:16;;;;;;;1999.90;999.90;;;;;;;;;;5006402;28;20779;-66
2022/04/04 17:34:01;;;;;;;1999.90;999.90;;;;;;;;;;4999761;28;20418;-67
2022/04/04 17:36:46;;;;;;;1999.90;999.90;;;;;;;;;;4995720;28;20204;-68
2022/04/04 17:39:31;;;;;;;1999.90;999.90;;;;;;;;;;5012442;28;20692;-65
2022/04/04 17:42:16;;;;;;;1999.90;999.90;;;;;;;;;;5013255;28;20710;-69
2022/04/04 17:45:01;;;;;;;1999.90;999.90;;;;;;;;;;5012921;28;20751;-65
2022/04/04 17:47:48;;;;;;;1999.90;999.90;;;;;;;;;;5002597;28;20895;-67
2022/04/04 17:50:33;;;;;;;1999.90;999.90;;;;;;;;;;4994793;28;20211;-65
2022/04/04 17:53:19;;;;;;;1999.90;999.90;;;;;;;;;;4993616;28;20415;-68
2022/04/04 17:56:04;;;;;;;1999.90;999.90;;;;;;;;;;5010989;28;20226;-67
2022/04/04 17:58:50;;;;;;;1999.90;999.90;;;;;;;;;;5010371;28;20211;-66
2022/04/04 18:01:35;;;;;;;1999.90;999.90;;;;;;;;;;5012540;28;20249;-66
2022/04/04 18:04:21;;;;;;;1999.90;999.90;;;;;;;;;;5013100;28;20322;-66
2022/04/04 18:07:07;;;;;;;1999.90;999.90;;;;;;;;;;5011732;28;20301;-65
2022/04/04 18:09:52;;;;;;;1999.90;999.90;;;;;;;;;;5008415;28;20225;-67
2022/04/04 18:12:38;;;;;;;1999.90;999.90;;;;;;;;;;5012327;28;20218;-67
2022/04/04 18:15:23;;;;;;;1999.90;999.90;;;;;;;;;;5012834;28;20210;-67
2022/04/04 18:18:07;;;;;;;1999.90;999.90;;;;;;;;;;5012054;28;20210;-66
2022/04/04 18:20:54;;;;;;;1999.90;999.90;;;;;;;;;;5009983;28;20604;-66
2022/04/04 18:23:39;;;;;;;1999.90;999.90;;;;;;;;;;4993027;28;20222;-66
2022/04/04 18:26:24;;;;;;;1999.90;999.90;;;;;;;;;;5001411;28;20218;-65
2022/04/04 18:29:10;;;;;;;1999.90;999.90;;;;;;;;;;5011587;28;20203;-66
2022/04/04 18:31:54;;;;;;;1999.90;999.90;;;;;;;;;;5012651;28;20289;-67
2022/04/04 18:34:39;;;;;;;1999.90;999.90;;;;;;;;;;5012051;28;20412;-66
2022/04/04 18:37:26;;;;;;;1999.90;999.90;;;;;;;;;;4992792;28;20297;-66
2022/04/04 18:40:11;;;;;;;1999.90;999.90;;;;;;;;;;4992641;28;20689;-67
2022/04/04 18:42:57;;;;;;;1999.90;999.90;;;;;;;;;;4992539;28;20234;-66
2022/04/04 18:45:42;;;;;;;1999.90;999.90;;;;;;;;;;5005183;28;20289;-67
2022/04/04 18:48:27;;;;;;;1999.90;999.90;;;;;;;;;;5011678;28;20205;-64
2022/04/04 18:51:12;;;;;;;1999.90;999.90;;;;;;;;;;5012294;28;20238;-67
2022/04/04 18:53:59;;;;;;;1999.90;999.90;;;;;;;;;;5011879;28;20708;-69
2022/04/04 18:56:44;;;;;;;1999.90;999.90;;;;;;;;;;5009624;28;20210;-65
2022/04/04 18:59:28;;;;;;;1999.90;999.90;;;;;;;;;;5011344;28;20266;-66
2022/04/04 19:02:13;;;;;;;1999.90;999.90;;;;;;;;;;5011192;28;20226;-67
2022/04/04 19:04:58;;;;;;;1999.90;999.90;;;;;;;;;;5011501;28;20416;-65
2022/04/04 19:07:43;;;;;;;1999.90;999.90;;;;;;;;;;5012517;28;20198;-66
2022/04/04 19:10:30;;;;;;;1999.90;999.90;;;;;;;;;;5011634;28;20205;-66
2022/04/04 19:13:15;;;;;;;1999.90;999.90;;;;;;;;;;5012329;28;20206;-68
2022/04/04 19:15:59;;;;;;;1999.90;999.90;;;;;;;;;;5007483;28;20213;-68
2022/04/04 19:18:45;;;;;;;1999.90;999.90;;;;;;;;;;5013274;28;20579;-68
2022/04/04 19:21:31;;;;;;;1999.90;999.90;;;;;;;;;;5015781;28;20238;-67
2022/04/04 19:24:16;;;;;;;1999.90;999.90;;;;;;;;;;5016186;28;20322;-68
2022/04/04 19:27:02;;;;;;;1999.90;999.90;;;;;;;;;;5015901;28;20633;-68
2022/04/04 19:29:47;;;;;;;1999.90;999.90;;;;;;;;;;5015318;28;20268;-68
2022/04/04 19:32:32;;;;;;;1999.90;999.90;;;;;;;;;;5015861;28;20225;-68
2022/04/04 19:35:17;;;;;;;1999.90;999.90;;;;;;;;;;5015477;28;20215;-68
2022/04/04 19:38:02;;;;;;;1999.90;999.90;;;;;;;;;;5015003;28;20583;-67
2022/04/04 19:40:47;;;;;;;1999.90;999.90;;;;;;;;;;5015692;28;20226;-68
2022/04/04 19:43:33;;;;;;;1999.90;999.90;;;;;;;;;;5015633;28;20567;-68
2022/04/04 19:46:18;;;;;;;1999.90;999.90;;;;;;;;;;5015622;28;20206;-68
2022/04/04 19:49:05;;;;;;;1999.90;999.90;;;;;;;;;;5014812;28;20577;-67
2022/04/04 19:51:50;;;;;;;1999.90;999.90;;;;;;;;;;5015374;28;20226;-68
2022/04/04 19:54:35;;;;;;;1999.90;999.90;;;;;;;;;;5015455;28;20567;-67
2022/04/04 19:57:20;;;;;;;1999.90;999.90;;;;;;;;;;5015389;28;20203;-68
2022/04/04 20:00:09;;;;;;;1999.90;999.90;;;;;;;;;;5015074;28;20580;-66
2022/04/04 20:02:54;;;;;;;1999.90;999.90;;;;;;;;;;5014908;28;20647;-68
2022/04/04 20:05:39;;;;;;;1999.90;999.90;;;;;;;;;;5015280;28;20226;-67
2022/04/04 20:08:24;;;;;;;1999.90;999.90;;;;;;;;;;5014537;28;20258;-65
2022/04/04 20:11:09;;;;;;;1999.90;999.90;;;;;;;;;;5014403;28;20300;-68
2022/04/04 20:13:54;;;;;;;1999.90;999.90;;;;;;;;;;5013723;28;20211;-67
2022/04/04 20:16:41;;;;;;;1999.90;999.90;;;;;;;;;;5014286;28;20720;-68
2022/04/04 20:19:26;;;;;;;1999.90;999.90;;;;;;;;;;5012527;28;20214;-66
2022/04/04 20:22:14;;;;;;;1999.90;999.90;;;;;;;;;;5011977;28;20336;-68
2022/04/04 20:24:59;;;;;;;1999.90;999.90;;;;;;;;;;5011735;28;20207;-67
2022/04/04 20:27:45;;;;;;;1999.90;999.90;;;;;;;;;;5013242;28;20203;-66
2022/04/04 20:30:30;;;;;;;1999.90;999.90;;;;;;;;;;5011385;28;20233;-67
2022/04/04 20:33:16;;;;;;;1999.90;999.90;;;;;;;;;;5014086;28;20202;-68